Time;durP1;ratioP1;P1;durP2;ratioP2;P2;SDS_P1;SDS_P2;PMS_P1;PMS_P2;Temp;Humidity;BMP_temperature;BMP_pressure;BME280_temperature;BME280_humidity;BME280_pressure;Samples;Min_cycle;Max_cycle;Signal;HPM_P1;HPM_P2
2021/09/17 00:19:18;;;;;;;25.33;14.45;;;13.00;99.90;;;;;;5080868;23;20146;31
2021/09/17 00:21:47;;;;;;;24.25;13.73;;;13.00;99.90;;;;;;4907882;29;20154;-86
2021/09/17 00:24:13;;;;;;;29.52;16.38;;;13.00;99.90;;;;;;4915349;29;20095;-88
2021/09/17 00:26:39;;;;;;;21.48;13.10;;;13.00;99.90;;;;;;4915832;29;20104;-89
2021/09/17 00:29:05;;;;;;;20.17;11.70;;;13.00;99.90;;;;;;4884993;29;20051;-89
2021/09/17 00:31:31;;;;;;;24.25;12.98;;;12.90;99.90;;;;;;4900131;29;20288;-90
2021/09/17 00:33:57;;;;;;;21.98;13.00;;;12.90;99.90;;;;;;4884753;29;20056;-90
2021/09/17 00:36:23;;;;;;;25.65;12.30;;;13.00;99.90;;;;;;4899433;29;20052;-89
2021/09/17 00:38:48;;;;;;;25.00;13.05;;;13.00;99.90;;;;;;4900040;29;20118;-90
2021/09/17 00:41:14;;;;;;;18.13;12.23;;;13.00;99.90;;;;;;4899730;29;20055;-90
2021/09/17 00:43:41;;;;;;;22.98;12.10;;;13.00;99.90;;;;;;4899827;29;20052;-90
2021/09/17 00:46:07;;;;;;;19.95;12.80;;;13.00;99.90;;;;;;4899910;29;20048;-91
2021/09/17 00:48:33;;;;;;;19.95;12.73;;;13.00;99.90;;;;;;4915324;29;20183;-89
2021/09/17 00:50:59;;;;;;;26.17;12.35;;;13.00;99.90;;;;;;4915743;29;20066;-90
2021/09/17 00:53:26;;;;;;;29.63;12.88;;;13.00;99.90;;;;;;4915213;29;20052;-91
2021/09/17 00:55:52;;;;;;;24.58;12.23;;;13.00;99.90;;;;;;4915385;29;20056;-90
2021/09/17 00:58:18;;;;;;;29.15;15.00;;;13.00;99.90;;;;;;4899515;29;20051;-90
2021/09/17 01:00:43;;;;;;;22.80;13.05;;;12.90;99.90;;;;;;4884214;29;20548;-89
2021/09/17 01:03:09;;;;;;;24.35;12.80;;;12.90;99.90;;;;;;4899756;29;20076;-90
2021/09/17 01:05:35;;;;;;;23.23;10.90;;;13.00;99.90;;;;;;4898736;29;20052;-90
2021/09/17 01:08:01;;;;;;;23.52;12.40;;;13.00;99.90;;;;;;4899495;29;20044;-90
2021/09/17 01:10:28;;;;;;;22.60;13.35;;;13.00;99.90;;;;;;4884289;29;20552;-91
2021/09/17 01:12:55;;;;;;;19.02;12.23;;;13.00;99.90;;;;;;4899875;29;20056;-90
2021/09/17 01:15:21;;;;;;;23.50;13.52;;;13.00;99.90;;;;;;4915011;29;20054;-90
2021/09/17 01:17:48;;;;;;;25.27;13.32;;;13.00;99.90;;;;;;4899584;29;20056;-91
2021/09/17 01:20:18;;;;;;;19.23;12.82;;;12.90;99.90;;;;;;4884072;29;20082;-92
2021/09/17 01:22:46;;;;;;;31.35;15.93;;;12.80;99.90;;;;;;4915376;29;20485;-90
2021/09/17 01:25:16;;;;;;;26.85;15.18;;;12.90;99.90;;;;;;4915506;29;20112;-91
2021/09/17 01:27:43;;;;;;;27.05;15.00;;;12.90;99.90;;;;;;4915353;29;20048;-91
2021/09/17 01:30:11;;;;;;;25.30;15.23;;;12.80;99.90;;;;;;4915376;29;20110;-91
2021/09/17 01:32:41;;;;;;;33.13;16.48;;;12.80;99.90;;;;;;4899513;29;20485;-91
2021/09/17 01:35:09;;;;;;;28.17;15.73;;;12.70;99.90;;;;;;4900072;29;20039;-92
2021/09/17 01:37:36;;;;;;;34.00;16.05;;;12.70;99.90;;;;;;4915055;29;20067;-91
2021/09/17 01:40:02;;;;;;;25.05;15.20;;;12.70;99.90;;;;;;4915756;29;20044;-90
2021/09/17 01:42:28;;;;;;;27.58;15.73;;;12.70;99.90;;;;;;4899545;29;20448;-89
2021/09/17 01:44:54;;;;;;;32.10;16.95;;;12.70;99.90;;;;;;4899640;29;20052;-90
2021/09/17 01:47:20;;;;;;;24.05;14.82;;;12.60;99.90;;;;;;4883625;29;20048;-90
2021/09/17 01:49:46;;;;;;;32.50;17.17;;;12.70;99.90;;;;;;4899147;29;20477;-90
2021/09/17 01:52:12;;;;;;;41.80;18.02;;;12.60;99.90;;;;;;4899227;29;20044;-89
2021/09/17 01:54:37;;;;;;;34.75;18.02;;;12.60;99.90;;;;;;4883046;29;20100;-90
2021/09/17 01:57:04;;;;;;;41.80;19.25;;;12.60;99.90;;;;;;4899435;29;20094;-91
2021/09/17 01:59:30;;;;;;;40.20;19.15;;;12.60;99.90;;;;;;4883130;29;20087;-89
2021/09/17 02:01:56;;;;;;;35.10;19.63;;;12.70;99.90;;;;;;4899004;29;20051;-89
2021/09/17 02:04:22;;;;;;;37.95;20.55;;;12.70;99.90;;;;;;4899068;29;20052;-91
2021/09/17 02:06:48;;;;;;;52.17;19.67;;;12.70;99.90;;;;;;4899189;29;20048;-89
2021/09/17 02:09:14;;;;;;;34.20;19.23;;;12.80;99.90;;;;;;4883419;29;20096;-90
2021/09/17 02:11:40;;;;;;;36.33;19.38;;;12.80;99.90;;;;;;4898619;29;20413;-90
2021/09/17 02:14:06;;;;;;;36.63;19.75;;;12.80;99.90;;;;;;4883575;29;20040;-90
2021/09/17 02:16:32;;;;;;;43.83;21.63;;;12.80;99.90;;;;;;4900463;29;20382;-90
2021/09/17 02:18:58;;;;;;;43.25;21.00;;;12.80;99.90;;;;;;4918693;29;20445;-90
2021/09/17 02:21:24;;;;;;;40.70;21.05;;;12.90;99.90;;;;;;4902118;29;20098;-90
2021/09/17 02:23:51;;;;;;;43.60;20.35;;;13.00;99.90;;;;;;4902845;29;20052;-90
2021/09/17 02:26:18;;;;;;;36.85;19.95;;;13.00;99.90;;;;;;4903003;29;20051;-93
2021/09/17 02:28:44;;;;;;;35.88;18.98;;;13.00;99.90;;;;;;4918531;29;20052;-90
2021/09/17 02:31:11;;;;;;;37.17;19.23;;;13.10;99.90;;;;;;4902949;29;20048;-89
2021/09/17 02:33:37;;;;;;;42.85;21.73;;;13.10;99.90;;;;;;4902400;29;20048;-90
2021/09/17 02:36:03;;;;;;;40.05;21.38;;;13.10;99.90;;;;;;4902773;29;20048;-91
2021/09/17 02:38:29;;;;;;;33.85;20.38;;;13.20;99.90;;;;;;4918014;29;20129;-90
2021/09/17 02:40:55;;;;;;;36.80;20.52;;;13.20;99.90;;;;;;4902461;29;20048;-90
2021/09/17 02:43:21;;;;;;;40.75;20.17;;;13.20;99.90;;;;;;4902091;29;20055;-91
2021/09/17 02:45:47;;;;;;;33.00;18.88;;;13.20;99.90;;;;;;4917895;29;20587;-90
2021/09/17 02:48:13;;;;;;;42.90;19.00;;;13.20;99.90;;;;;;4918266;29;20079;-90
2021/09/17 02:50:39;;;;;;;40.47;19.65;;;13.20;99.90;;;;;;4917709;29;20184;-89
2021/09/17 02:53:06;;;;;;;37.47;19.40;;;13.20;99.90;;;;;;4918129;29;20055;-90
2021/09/17 02:55:32;;;;;;;41.45;20.42;;;13.10;99.90;;;;;;4902646;29;20051;-90
2021/09/17 02:57:58;;;;;;;36.17;20.33;;;13.20;99.90;;;;;;4901806;29;20063;-90
2021/09/17 03:00:24;;;;;;;33.80;18.75;;;13.10;99.90;;;;;;4901135;29;20044;-90
2021/09/17 03:02:50;;;;;;;34.95;19.48;;;13.10;99.90;;;;;;4901339;29;20564;-89
2021/09/17 03:05:16;;;;;;;28.75;18.10;;;13.10;99.90;;;;;;4917192;29;20056;-90
2021/09/17 03:07:42;;;;;;;41.28;19.15;;;13.00;99.90;;;;;;4916732;29;20111;-89
2021/09/17 03:10:09;;;;;;;37.95;20.00;;;13.10;99.90;;;;;;4901830;29;20056;-90
2021/09/17 03:12:35;;;;;;;38.80;20.55;;;13.00;99.90;;;;;;4901874;29;20373;-90
2021/09/17 03:15:00;;;;;;;33.25;18.48;;;13.00;99.90;;;;;;4901898;29;20050;-91
2021/09/17 03:17:26;;;;;;;38.15;19.60;;;13.00;99.90;;;;;;4917444;29;20515;-90
2021/09/17 03:19:52;;;;;;;34.15;19.17;;;12.90;99.90;;;;;;4888672;29;20144;-90
2021/09/17 03:22:18;;;;;;;48.60;20.33;;;12.90;99.90;;;;;;4921197;29;20058;-90
2021/09/17 03:24:44;;;;;;;39.28;20.30;;;12.80;99.90;;;;;;4904844;29;20456;-90
2021/09/17 03:27:10;;;;;;;44.70;20.05;;;12.80;99.90;;;;;;4921012;29;20050;-92
2021/09/17 03:29:36;;;;;;;43.15;20.88;;;12.90;99.90;;;;;;4919891;29;20047;-91
2021/09/17 03:32:02;;;;;;;42.13;19.92;;;12.80;99.90;;;;;;4920758;29;20091;-90
2021/09/17 03:34:28;;;;;;;39.20;20.13;;;12.80;99.90;;;;;;4920048;29;20040;-89
2021/09/17 03:36:54;;;;;;;35.58;20.40;;;12.90;99.90;;;;;;4920623;29;20082;-90
2021/09/17 03:39:20;;;;;;;35.17;21.23;;;12.90;99.90;;;;;;4905094;29;20047;-91
2021/09/17 03:41:45;;;;;;;36.00;21.20;;;12.80;99.90;;;;;;4920282;29;20059;-91
2021/09/17 03:44:13;;;;;;;51.30;23.30;;;12.80;99.90;;;;;;4905004;29;20048;-93
2021/09/17 03:46:39;;;;;;;44.20;21.13;;;12.80;99.90;;;;;;4920494;29;20110;-91
2021/09/17 03:49:05;;;;;;;38.58;20.50;;;12.80;99.90;;;;;;4920455;29;20051;-90
2021/09/17 03:51:31;;;;;;;42.70;20.15;;;12.70;99.90;;;;;;4919889;29;20500;-90
2021/09/17 03:53:57;;;;;;;42.95;20.00;;;12.70;99.90;;;;;;4920042;29;20075;-89
2021/09/17 03:56:23;;;;;;;47.83;21.70;;;12.60;99.90;;;;;;4904468;29;20488;-90
2021/09/17 03:58:48;;;;;;;56.75;22.20;;;12.60;99.90;;;;;;4919794;29;20047;-89
2021/09/17 04:01:14;;;;;;;44.22;21.35;;;12.60;99.90;;;;;;4920181;29;20040;-88
2021/09/17 04:03:40;;;;;;;77.15;23.13;;;12.60;99.90;;;;;;4903896;29;20053;-89
2021/09/17 04:06:06;;;;;;;34.88;21.88;;;12.60;99.90;;;;;;4904370;29;20107;-89
2021/09/17 04:08:32;;;;;;;53.35;24.60;;;12.60;99.90;;;;;;4919613;29;20058;-89
2021/09/17 04:10:58;;;;;;;39.35;21.05;;;12.60;99.90;;;;;;4919874;29;20047;-89
2021/09/17 04:13:24;;;;;;;49.50;25.17;;;12.50;99.90;;;;;;4903700;29;20139;-90
2021/09/17 04:15:50;;;;;;;60.90;27.60;;;12.60;99.90;;;;;;4919411;29;20051;-88
2021/09/17 04:18:15;;;;;;;49.85;26.08;;;12.60;99.90;;;;;;4919648;29;20053;-89
2021/09/17 04:20:41;;;;;;;52.03;25.35;;;12.50;99.90;;;;;;4919022;29;20090;-91
2021/09/17 04:23:07;;;;;;;45.78;24.95;;;12.50;99.90;;;;;;4904155;29;20044;-89
2021/09/17 04:25:33;;;;;;;53.70;25.65;;;12.50;99.90;;;;;;4903683;29;20056;-91
2021/09/17 04:27:59;;;;;;;46.97;24.85;;;12.50;99.90;;;;;;4919358;29;20412;-93
2021/09/17 04:30:25;;;;;;;60.92;24.67;;;12.50;99.90;;;;;;4919629;29;20070;-90
2021/09/17 04:32:51;;;;;;;45.65;25.65;;;12.50;99.90;;;;;;4919233;29;20130;-91
2021/09/17 04:35:18;;;;;;;48.63;26.00;;;12.50;99.90;;;;;;4918712;29;20504;-89
2021/09/17 04:37:46;;;;;;;54.20;27.42;;;12.60;99.90;;;;;;4918580;29;20489;-90
2021/09/17 04:40:14;;;;;;;51.72;28.17;;;12.60;99.90;;;;;;4918731;29;20079;-91
2021/09/17 04:42:40;;;;;;;57.08;28.38;;;12.60;99.90;;;;;;4919206;29;20055;-90
2021/09/17 04:45:07;;;;;;;48.13;26.52;;;12.70;99.90;;;;;;4919222;29;20130;-92
2021/09/17 04:47:33;;;;;;;45.83;25.60;;;12.70;99.90;;;;;;4918652;29;20047;-92
2021/09/17 04:50:02;;;;;;;58.25;26.83;;;12.70;99.90;;;;;;4919307;29;20051;-91
2021/09/17 04:52:28;;;;;;;46.70;27.42;;;12.80;99.90;;;;;;4919106;29;20122;-92
2021/09/17 04:54:54;;;;;;;53.42;28.88;;;12.80;99.90;;;;;;4903461;29;20477;-92
2021/09/17 04:57:20;;;;;;;54.28;29.75;;;12.90;99.90;;;;;;4919440;29;20044;-91
2021/09/17 04:59:46;;;;;;;62.50;29.63;;;12.90;99.90;;;;;;4918658;29;20056;-91
2021/09/17 05:02:12;;;;;;;58.22;28.52;;;12.90;99.90;;;;;;4903320;29;20054;-92
2021/09/17 05:04:37;;;;;;;62.50;31.27;;;13.00;99.90;;;;;;4918802;29;20066;-92
2021/09/17 05:07:04;;;;;;;57.78;28.55;;;13.00;99.90;;;;;;4903450;29;20155;-91
2021/09/17 05:09:32;;;;;;;66.88;30.08;;;13.00;99.90;;;;;;4903179;29;20058;-92
2021/09/17 05:11:58;;;;;;;59.88;30.30;;;13.00;99.90;;;;;;4903932;29;20049;-91
2021/09/17 05:14:24;;;;;;;69.82;30.73;;;13.00;99.90;;;;;;4903465;29;20102;-91
2021/09/17 05:16:50;;;;;;;61.28;29.98;;;13.10;99.90;;;;;;4918582;29;20055;-90
2021/09/17 05:19:18;;;;;;;54.10;29.63;;;13.10;99.90;;;;;;4902627;29;20191;-89
2021/09/17 05:21:44;;;;;;;53.30;31.65;;;13.10;99.90;;;;;;4917449;29;20142;-90
2021/09/17 05:24:10;;;;;;;57.55;30.50;;;13.10;99.90;;;;;;4917730;29;20052;-90
2021/09/17 05:26:36;;;;;;;53.97;28.70;;;13.20;99.90;;;;;;4917935;29;20058;-90
2021/09/17 05:29:02;;;;;;;51.67;29.13;;;13.20;99.90;;;;;;4902560;29;20047;-90
2021/09/17 05:31:28;;;;;;;56.28;30.83;;;13.20;99.90;;;;;;4918405;29;20495;-91
2021/09/17 05:33:54;;;;;;;55.22;28.30;;;13.20;99.90;;;;;;4918140;29;20047;-90
2021/09/17 05:36:20;;;;;;;55.03;28.50;;;13.30;99.90;;;;;;4918370;29;20043;-91
2021/09/17 05:38:46;;;;;;;52.20;28.25;;;13.30;99.90;;;;;;4902039;29;20134;-91
2021/09/17 05:41:13;;;;;;;48.25;28.13;;;13.30;99.90;;;;;;4918204;29;20043;-90
2021/09/17 05:43:39;;;;;;;57.42;27.85;;;13.30;99.90;;;;;;4917534;29;20134;-91
2021/09/17 05:46:05;;;;;;;60.70;29.77;;;13.40;99.90;;;;;;4918923;29;20139;-91
2021/09/17 05:48:31;;;;;;;58.58;29.90;;;13.30;99.90;;;;;;4918513;29;20069;-93
2021/09/17 05:50:57;;;;;;;51.83;29.13;;;13.40;99.90;;;;;;4917732;29;20052;-91
2021/09/17 05:53:23;;;;;;;62.20;28.63;;;13.40;99.90;;;;;;4918538;29;20142;-91
2021/09/17 05:55:49;;;;;;;59.00;28.88;;;13.40;99.90;;;;;;4918225;29;20063;-91
2021/09/17 05:58:15;;;;;;;55.53;28.52;;;13.40;99.90;;;;;;4918892;29;20051;-92
2021/09/17 06:00:41;;;;;;;49.00;28.58;;;13.40;99.90;;;;;;4918293;29;20054;-91
2021/09/17 06:03:07;;;;;;;50.47;28.40;;;13.40;99.90;;;;;;4918518;29;20056;-91
2021/09/17 06:05:33;;;;;;;53.50;28.48;;;13.50;99.90;;;;;;4918796;29;20059;-92
2021/09/17 06:07:59;;;;;;;46.38;27.45;;;13.50;99.90;;;;;;4918065;29;20457;-91
2021/09/17 06:10:24;;;;;;;42.03;24.52;;;13.50;99.90;;;;;;4902713;29;20515;-92
2021/09/17 06:12:50;;;;;;;47.38;25.15;;;13.60;99.90;;;;;;4917803;29;20083;-92
2021/09/17 06:15:17;;;;;;;41.28;24.42;;;13.60;99.90;;;;;;4902565;29;20086;-92
2021/09/17 06:17:44;;;;;;;39.70;23.73;;;13.60;99.90;;;;;;4918500;29;20059;-92
2021/09/17 06:20:13;;;;;;;49.08;25.92;;;13.70;99.90;;;;;;4918500;29;20066;-92
2021/09/17 06:22:41;;;;;;;58.58;24.75;;;13.70;99.90;;;;;;4918309;29;20060;-92
2021/09/17 06:25:07;;;;;;;36.20;24.02;;;13.80;99.90;;;;;;4918830;29;20043;-93
2021/09/17 06:27:33;;;;;;;39.85;23.88;;;13.80;99.90;;;;;;4918546;29;20052;-94
2021/09/17 06:29:59;;;;;;;38.17;23.85;;;13.90;99.90;;;;;;4918155;29;20062;-92
2021/09/17 06:32:25;;;;;;;46.33;23.85;;;13.90;99.90;;;;;;4918504;29;20496;-92
2021/09/17 06:34:51;;;;;;;37.05;22.98;;;13.90;99.90;;;;;;4902442;29;20051;-94
2021/09/17 06:37:17;;;;;;;43.20;24.75;;;14.00;99.90;;;;;;4918389;29;20477;-91
2021/09/17 06:39:43;;;;;;;38.40;22.52;;;14.00;99.90;;;;;;4917759;29;20058;-93
2021/09/17 06:42:09;;;;;;;40.42;24.55;;;14.00;99.90;;;;;;4918439;29;20044;-92
2021/09/17 06:44:35;;;;;;;35.53;21.67;;;14.10;99.90;;;;;;4917786;29;20043;-92
2021/09/17 06:47:01;;;;;;;37.88;21.13;;;14.20;99.90;;;;;;4918008;29;20079;-90
2021/09/17 06:49:27;;;;;;;40.55;21.83;;;14.20;99.90;;;;;;4917417;29;20059;-92
2021/09/17 06:51:53;;;;;;;35.88;21.50;;;14.30;99.90;;;;;;4916770;29;20050;-91
2021/09/17 06:54:19;;;;;;;33.70;19.85;;;14.30;99.90;;;;;;4916600;29;20047;-92
2021/09/17 06:56:45;;;;;;;29.63;20.15;;;14.40;99.90;;;;;;4916814;29;20056;-92
2021/09/17 06:59:11;;;;;;;36.30;21.25;;;14.40;99.90;;;;;;4917604;29;20053;-92
2021/09/17 07:01:37;;;;;;;31.65;19.73;;;14.50;99.90;;;;;;4917696;29;20477;-93
2021/09/17 07:04:03;;;;;;;27.45;18.27;;;14.60;99.90;;;;;;4919838;29;20444;-91
2021/09/17 07:06:32;;;;;;;33.35;18.75;;;14.70;99.90;;;;;;4921490;29;20044;-91
2021/09/17 07:08:58;;;;;;;38.10;19.27;;;14.70;99.90;;;;;;4920869;29;20047;-92
2021/09/17 07:11:24;;;;;;;32.95;18.15;;;14.80;99.90;;;;;;4920943;29;20495;-91
2021/09/17 07:13:53;;;;;;;25.25;17.65;;;14.90;99.90;;;;;;4919975;29;20050;-91
2021/09/17 07:16:19;;;;;;;37.08;18.77;;;14.90;99.90;;;;;;4920432;29;20567;-90
2021/09/17 07:18:45;;;;;;;28.65;17.02;;;15.00;99.90;;;;;;4919130;29;20056;-92
2021/09/17 07:21:11;;;;;;;26.02;16.35;;;15.10;99.90;;;;;;4899848;29;20513;-92
2021/09/17 07:23:37;;;;;;;28.25;16.50;;;15.20;99.90;;;;;;4916018;29;20063;-91
2021/09/17 07:26:03;;;;;;;28.65;16.75;;;15.30;99.90;;;;;;4916101;29;20047;-93
2021/09/17 07:28:32;;;;;;;26.95;15.65;;;15.50;99.90;;;;;;4916533;29;20087;-94
2021/09/17 07:30:58;;;;;;;25.88;16.33;;;15.60;99.90;;;;;;4916552;29;20560;-92
2021/09/17 07:33:24;;;;;;;23.50;14.85;;;15.60;99.90;;;;;;4901968;29;20052;-93
2021/09/17 07:35:50;;;;;;;25.83;15.55;;;15.70;99.90;;;;;;4901916;29;20405;-93
2021/09/17 07:38:16;;;;;;;24.80;14.43;;;15.80;99.90;;;;;;4902097;29;20503;-94
2021/09/17 07:40:42;;;;;;;17.52;14.60;;;15.90;99.90;;;;;;4917635;29;20052;-93
2021/09/17 07:43:08;;;;;;;18.35;13.57;;;16.00;99.90;;;;;;4933401;29;20136;-93
2021/09/17 07:45:34;;;;;;;23.48;14.07;;;16.10;99.90;;;;;;4917612;29;20048;-92
2021/09/17 07:48:03;;;;;;;24.88;14.10;;;16.20;99.90;;;;;;4919608;29;20055;-96
2021/09/17 07:50:29;;;;;;;20.92;13.20;;;16.30;99.90;;;;;;4938217;29;20051;-94
2021/09/17 07:52:56;;;;;;;21.65;13.63;;;16.40;99.90;;;;;;4923012;29;20051;-96
2021/09/17 07:55:23;;;;;;;18.88;13.73;;;16.40;99.90;;;;;;4920809;29;20135;-96
2021/09/17 07:57:49;;;;;;;19.92;13.60;;;16.60;99.90;;;;;;4902099;29;20064;-90
2021/09/17 08:00:16;;;;;;;23.33;15.25;;;16.60;99.90;;;;;;4919421;29;20134;-94
2021/09/17 08:06:26;;;;;;;21.13;13.25;;;16.80;99.90;;;;;;4919375;29;20413;-91
2021/09/17 08:08:52;;;;;;;13.38;11.48;;;17.00;99.90;;;;;;4901995;29;20485;-92
2021/09/17 08:11:18;;;;;;;21.85;12.93;;;17.10;99.90;;;;;;4918316;29;20047;-92
2021/09/17 08:14:07;;;;;;;19.73;10.90;;;17.30;99.90;;;;;;4886973;29;20113;-91
2021/09/17 08:24:32;;;;;;;17.90;10.18;;;17.60;99.90;;;;;;4938092;29;20066;-91
2021/09/17 08:27:00;;;;;;;20.92;9.77;;;17.70;99.90;;;;;;4920911;29;20054;-92
2021/09/17 08:29:27;;;;;;;13.43;8.30;;;17.80;99.90;;;;;;4921678;29;20051;-92
2021/09/17 08:31:54;;;;;;;16.77;7.97;;;17.80;99.90;;;;;;4921243;29;20083;-92
2021/09/17 08:34:33;;;;;;;18.38;7.50;;;17.90;99.90;;;;;;4920958;29;20044;-92
2021/09/17 08:37:00;;;;;;;13.48;7.22;;;18.00;99.90;;;;;;4905337;29;20051;-91
2021/09/17 08:39:26;;;;;;;23.98;7.80;;;18.00;99.90;;;;;;4920708;29;20056;-92
2021/09/17 08:41:52;;;;;;;13.40;7.43;;;18.00;99.90;;;;;;4907531;29;20122;-96
2021/09/17 08:44:18;;;;;;;10.70;6.25;;;18.00;99.90;;;;;;4924112;29;20050;-93
2021/09/17 08:46:44;;;;;;;13.02;6.90;;;18.10;99.90;;;;;;4921228;29;20138;-96
2021/09/17 08:49:10;;;;;;;5.30;3.45;;;18.10;99.90;;;;;;4920049;29;20109;-96
2021/09/17 08:51:36;;;;;;;6.68;2.63;;;18.20;99.90;;;;;;4920144;29;20106;-96
2021/09/17 08:54:04;;;;;;;1.95;1.45;;;18.20;99.90;;;;;;4920377;29;20050;-96
2021/09/17 08:56:32;;;;;;;6.10;1.50;;;18.30;99.90;;;;;;4920852;29;20102;-96
2021/09/17 08:58:59;;;;;;;3.20;1.00;;;18.30;99.90;;;;;;4919766;29;20047;-96
2021/09/17 09:01:33;;;;;;;4.53;1.08;;;18.30;99.90;;;;;;4919980;29;20073;-96
2021/09/17 09:04:03;;;;;;;4.95;0.82;;;18.30;99.90;;;;;;4919951;29;20530;-96
2021/09/17 09:06:46;;;;;;;4.23;1.07;;;18.30;99.90;;;;;;4921584;29;20062;-96
2021/09/17 09:09:18;;;;;;;5.85;1.10;;;18.30;99.90;;;;;;4921175;29;20195;-96
2021/09/17 09:11:53;;;;;;;3.92;0.85;;;18.40;99.90;;;;;;4920039;29;20051;-96
2021/09/17 09:14:20;;;;;;;5.68;1.00;;;18.60;99.90;;;;;;4920049;29;20091;-96
2021/09/17 09:16:51;;;;;;;2.40;1.00;;;18.60;99.90;;;;;;4920378;29;20099;-96
2021/09/17 09:19:35;;;;;;;4.93;0.82;;;18.60;99.90;;;;;;4920130;29;20051;-96
2021/09/17 09:22:06;;;;;;;3.38;1.10;;;18.70;99.90;;;;;;4918655;29;20059;-96
2021/09/17 09:24:39;;;;;;;3.40;0.90;;;18.70;99.90;;;;;;4919746;29;20091;-96
2021/09/17 09:27:25;;;;;;;4.65;1.02;;;18.60;99.90;;;;;;4918517;29;20075;-96
2021/09/17 09:29:52;;;;;;;6.90;1.10;;;18.70;99.90;;;;;;4918977;29;20289;-96
2021/09/17 09:32:33;;;;;;;5.68;0.80;;;18.70;99.90;;;;;;4919393;29;20047;-96
2021/09/17 09:35:01;;;;;;;1.27;0.55;;;18.60;99.90;;;;;;4919023;29;20071;-96
2021/09/17 09:37:33;;;;;;;3.78;0.85;;;18.60;99.90;;;;;;4919368;29;20052;-96
2021/09/17 09:40:04;;;;;;;4.38;0.90;;;18.50;99.90;;;;;;4919176;29;20047;-96
2021/09/17 09:42:41;;;;;;;4.05;0.93;;;18.50;99.90;;;;;;4919743;29;20064;-96
2021/09/17 09:45:14;;;;;;;4.13;0.73;;;18.50;99.90;;;;;;4919355;29;20051;-96
2021/09/17 09:47:42;;;;;;;3.50;0.73;;;18.50;99.90;;;;;;4920001;29;20058;-96
2021/09/17 09:50:16;;;;;;;4.30;0.88;;;18.50;99.90;;;;;;4919118;29;20134;-96
2021/09/17 09:52:43;;;;;;;3.60;0.88;;;18.40;99.90;;;;;;4921423;29;20056;-96
2021/09/17 09:55:09;;;;;;;5.03;0.95;;;18.40;99.90;;;;;;4920858;29;20239;-96
2021/09/17 09:57:36;;;;;;;4.05;0.70;;;18.50;99.90;;;;;;4921620;29;20369;-96
2021/09/17 10:00:08;;;;;;;2.67;0.60;;;18.50;99.90;;;;;;4920972;29;20047;-92
2021/09/17 10:02:36;;;;;;;13.43;0.80;;;18.50;99.90;;;;;;4919483;29;20070;-92
2021/09/17 10:05:03;;;;;;;5.20;0.70;;;18.40;99.90;;;;;;4919650;29;20121;-92
2021/09/17 10:07:29;;;;;;;4.55;0.75;;;18.40;99.90;;;;;;4919131;29;20056;-92
2021/09/17 10:09:56;;;;;;;3.47;1.08;;;18.50;99.90;;;;;;4919658;29;20054;-93
2021/09/17 10:12:24;;;;;;;1.10;0.68;;;18.50;99.90;;;;;;4919492;29;20484;-92
2021/09/17 10:14:51;;;;;;;3.53;0.85;;;18.50;99.90;;;;;;4919103;29;20048;-92
2021/09/17 10:17:20;;;;;;;2.85;0.70;;;18.50;99.90;;;;;;4919762;29;20445;-92
2021/09/17 10:19:47;;;;;;;1.43;0.60;;;18.60;99.90;;;;;;4918996;29;20063;-92
2021/09/17 10:22:27;;;;;;;1.77;0.32;;;18.60;99.90;;;;;;4915402;29;20063;-92
2021/09/17 10:25:08;;;;;;;2.77;0.63;;;18.70;99.90;;;;;;4915552;29;20466;-92
2021/09/17 10:27:36;;;;;;;0.90;0.43;;;18.70;99.90;;;;;;4915847;29;20052;-92
2021/09/17 10:30:06;;;;;;;4.75;1.00;;;18.80;99.90;;;;;;4900261;29;20044;-93
2021/09/17 10:32:51;;;;;;;3.42;0.60;;;18.80;99.90;;;;;;4915561;29;20122;-92
2021/09/17 10:35:45;;;;;;;3.45;0.63;;;18.90;99.90;;;;;;4883888;29;20068;-92
2021/09/17 10:38:17;;;;;;;0.93;0.50;;;18.90;99.90;;;;;;4908807;29;20094;-92
2021/09/17 10:41:02;;;;;;;3.53;0.75;;;18.80;99.90;;;;;;4935381;29;20052;-92
2021/09/17 10:43:39;;;;;;;5.05;0.50;;;18.80;99.90;;;;;;4919150;29;20058;-90
2021/09/17 10:46:21;;;;;;;1.60;0.52;;;18.90;99.90;;;;;;4918645;29;20048;-93
2021/09/17 10:48:53;;;;;;;5.85;0.50;;;18.90;99.90;;;;;;4935207;29;20044;-93
2021/09/17 10:51:36;;;;;;;4.80;0.85;;;19.00;99.90;;;;;;4919335;29;20051;-94
2021/09/17 10:54:20;;;;;;;4.20;0.52;;;19.00;99.90;;;;;;4918598;29;20103;-96
2021/09/17 10:56:49;;;;;;;2.17;0.50;;;19.10;99.90;;;;;;4919170;29;20437;-94
2021/09/17 10:59:29;;;;;;;4.90;0.73;;;19.10;99.90;;;;;;4934152;29;20048;-94
2021/09/17 11:02:08;;;;;;;2.28;0.40;;;19.10;99.90;;;;;;4918884;29;20047;-94
2021/09/17 11:05:00;;;;;;;7.53;0.93;;;19.10;99.90;;;;;;4918298;29;20511;-93
2021/09/17 11:07:32;;;;;;;2.65;0.75;;;18.90;99.90;;;;;;4915275;29;20064;-93
2021/09/17 11:09:58;;;;;;;8.15;0.77;;;18.90;99.90;;;;;;4917924;29;20104;-92
2021/09/17 11:12:44;;;;;;;4.35;0.47;;;18.80;99.90;;;;;;4917514;29;20044;-93
2021/09/17 11:15:16;;;;;;;4.72;0.77;;;18.70;99.90;;;;;;4916841;29;20052;-92
2021/09/17 11:17:45;;;;;;;4.72;0.65;;;18.90;99.90;;;;;;4918842;29;20532;-92
2021/09/17 11:20:17;;;;;;;3.28;0.63;;;18.80;99.90;;;;;;4920262;29;20505;-93
2021/09/17 11:23:03;;;;;;;6.25;0.77;;;18.80;99.90;;;;;;4921708;29;20043;-92
2021/09/17 11:25:33;;;;;;;1.25;0.38;;;18.80;99.90;;;;;;4921532;29;20051;-92
2021/09/17 11:27:59;;;;;;;;;;;18.70;99.90;;;;;;4921855;29;20134;-92
2021/09/17 11:30:27;;;;;;;1.73;0.57;;;18.70;99.90;;;;;;4920642;29;20363;-93
2021/09/17 11:32:54;;;;;;;2.95;0.68;;;18.60;99.90;;;;;;4921153;29;20612;-93
2021/09/17 11:35:20;;;;;;;0.52;0.50;;;18.70;99.90;;;;;;4920575;29;20047;-92
2021/09/17 11:37:55;;;;;;;6.38;1.17;;;18.70;99.90;;;;;;4920869;29;20054;-91
2021/09/17 11:40:22;;;;;;;1.20;0.57;;;18.80;99.90;;;;;;4921171;29;20047;-92
2021/09/17 11:42:48;;;;;;;1.55;0.52;;;18.90;99.90;;;;;;4921019;29;20051;-93
2021/09/17 11:45:20;;;;;;;3.72;0.60;;;19.00;99.90;;;;;;4920779;29;20054;-93
2021/09/17 11:47:53;;;;;;;3.95;0.82;;;19.10;99.90;;;;;;4920905;29;20043;-92
2021/09/17 11:50:24;;;;;;;0.47;0.30;;;19.10;99.90;;;;;;4920284;29;20066;-92
2021/09/17 11:52:51;;;;;;;2.88;0.73;;;19.20;99.90;;;;;;4920822;29;20044;-92
2021/09/17 11:55:20;;;;;;;1.67;0.50;;;19.10;99.90;;;;;;4920534;29;20044;-93
2021/09/17 11:57:48;;;;;;;1.83;0.70;;;19.10;99.90;;;;;;4920660;29;20054;-93
2021/09/17 12:00:17;;;;;;;1.95;0.93;;;19.20;99.90;;;;;;4920448;29;20107;-92
2021/09/17 12:02:44;;;;;;;1.25;0.40;;;19.20;99.90;;;;;;4920591;29;20048;-91
2021/09/17 12:05:18;;;;;;;1.75;0.47;;;19.20;99.90;;;;;;4920006;29;20051;-93
2021/09/17 12:07:48;;;;;;;3.28;0.40;;;19.00;99.90;;;;;;4920732;29;20079;-92
2021/09/17 12:10:15;;;;;;;;;;;18.80;99.90;;;;;;4920877;29;20059;-92
2021/09/17 12:12:44;;;;;;;1.38;0.40;;;18.80;99.90;;;;;;4920565;29;19930;-91
2021/09/17 12:15:11;;;;;;;0.80;0.35;;;18.90;99.90;;;;;;4919992;29;20117;-94
2021/09/17 12:18:04;;;;;;;4.38;1.10;;;18.80;99.90;;;;;;4919643;29;20048;-92
2021/09/17 12:20:50;;;;;;;1.55;0.77;;;19.00;99.90;;;;;;4918359;29;20150;-93
2021/09/17 12:23:19;;;;;;;1.83;0.50;;;19.00;99.90;;;;;;4919064;29;20044;-94
2021/09/17 12:25:47;;;;;;;5.70;0.60;;;18.90;99.90;;;;;;4919972;29;20048;-92
2021/09/17 12:28:19;;;;;;;1.33;0.45;;;19.00;99.90;;;;;;4918927;29;20118;-93
2021/09/17 12:30:46;;;;;;;3.60;0.65;;;19.30;99.90;;;;;;4922232;29;20067;-92
2021/09/17 12:33:25;;;;;;;2.70;0.50;;;19.50;99.90;;;;;;4923984;29;20048;-93
2021/09/17 12:35:53;;;;;;;2.80;0.52;;;19.30;99.90;;;;;;4921033;29;20130;-93
2021/09/17 12:38:23;;;;;;;3.33;0.70;;;19.10;99.90;;;;;;4918800;29;20415;-93
2021/09/17 12:40:53;;;;;;;2.75;0.68;;;19.10;99.90;;;;;;4919149;29;20047;-92
2021/09/17 12:43:30;;;;;;;2.17;0.60;;;19.10;99.90;;;;;;4918869;29;20047;-93
2021/09/17 12:46:05;;;;;;;2.30;0.40;;;19.10;99.90;;;;;;4919065;29;20055;-94
2021/09/17 12:48:33;;;;;;;0.90;0.22;;;19.00;99.90;;;;;;4918695;29;20047;-92
2021/09/17 12:51:00;;;;;;;1.60;0.50;;;19.10;99.90;;;;;;4919668;29;20055;-93
2021/09/17 12:53:37;;;;;;;2.42;0.77;;;19.20;99.90;;;;;;4919378;29;20052;-92
2021/09/17 12:56:14;;;;;;;1.27;0.40;;;19.50;99.90;;;;;;4919372;29;20504;-93
2021/09/17 12:58:40;;;;;;;6.00;0.50;;;19.70;99.90;;;;;;4919940;29;20056;-93
2021/09/17 13:01:08;;;;;;;2.08;0.63;;;20.00;99.90;;;;;;4918408;29;20106;-92
2021/09/17 13:03:34;;;;;;;3.40;0.82;;;20.40;99.90;;;;;;4918719;29;20065;-93
2021/09/17 13:06:04;;;;;;;0.90;0.60;;;20.40;99.90;;;;;;4918874;29;20048;-93
2021/09/17 13:08:32;;;;;;;2.00;0.73;;;20.40;99.90;;;;;;4918674;29;20131;-92